Time;durP1;ratioP1;P1;durP2;ratioP2;P2;SDS_P1;SDS_P2;PMS_P1;PMS_P2;Temp;Humidity;BMP_temperature;BMP_pressure;BME280_temperature;BME280_humidity;BME280_pressure;Samples;Min_cycle;Max_cycle;Signal;HPM_P1;HPM_P2
2022/12/28 00:01:20;;;;;;;;;5.00;2.00;;;;;9.92;77.92;101454.38;5036276;28;45332;-56
2022/12/28 00:03:46;;;;;;;;;5.75;5.00;;;;;9.96;78.32;101463.97;5036391;28;45359;-57
2022/12/28 00:06:13;;;;;;;;;5.00;3.25;;;;;9.93;79.10;101456.13;5036204;28;45363;-58
2022/12/28 00:08:39;;;;;;;;;3.33;3.33;;;;;9.97;78.03;101452.41;5035602;28;45525;-57
2022/12/28 00:11:08;;;;;;;;;3.67;3.67;;;;;10.00;78.54;101451.41;5031131;28;45458;-57
2022/12/28 00:13:34;;;;;;;;;3.00;3.00;;;;;9.96;78.96;101445.34;5016026;28;45275;-57
2022/12/28 00:16:08;;;;;;;;;2.25;2.25;;;;;9.97;78.19;101447.09;5016274;28;45331;-57
2022/12/28 00:18:34;;;;;;;;;5.75;4.25;;;;;9.96;78.61;101448.00;5015742;28;45592;-57
2022/12/28 00:21:01;;;;;;;;;5.00;4.75;;;;;9.93;78.20;101434.84;5015822;28;45392;-59
2022/12/28 00:23:27;;;;;;;;;4.75;2.75;;;;;9.94;79.33;101441.91;4998196;28;45357;-61
2022/12/28 00:25:52;;;;;;;;;5.00;5.00;;;;;9.99;78.63;101439.03;5016183;28;45538;-58
2022/12/28 00:28:19;;;;;;;;;5.75;4.75;;;;;10.02;77.79;101434.47;5015827;28;46035;-56
2022/12/28 00:30:44;;;;;;;;;4.00;4.00;;;;;9.99;78.52;101416.00;5015925;28;45513;-57
2022/12/28 00:33:10;;;;;;;;;5.50;4.75;;;;;10.02;78.30;101428.28;5015384;28;45459;-59
2022/12/28 00:35:35;;;;;;;;;2.25;2.25;;;;;9.99;78.71;101408.03;5015929;28;45388;-58
2022/12/28 00:38:01;;;;;;;;;2.25;2.00;;;;;10.03;78.24;101398.16;5015593;28;46715;-57
2022/12/28 00:40:26;;;;;;;;;3.00;3.00;;;;;10.02;77.90;101397.25;5015720;28;45360;-57
2022/12/28 00:42:51;;;;;;;;;3.25;3.25;;;;;10.07;77.50;101401.53;5016120;28;45353;-57
2022/12/28 00:45:17;;;;;;;;;3.00;3.00;;;;;10.08;77.48;101390.84;5016309;28;45308;-58
2022/12/28 00:47:42;;;;;;;;;3.00;3.00;;;;;10.08;78.33;101395.31;4997767;28;55566;-60
2022/12/28 00:50:08;;;;;;;;;3.00;3.00;;;;;10.10;78.22;101396.97;5015986;28;45226;-57
2022/12/28 00:52:33;;;;;;;;;3.00;3.00;;;;;10.11;77.44;101395.16;5015636;28;45422;-56
2022/12/28 00:54:59;;;;;;;;;2.67;2.67;;;;;10.12;78.25;101396.91;5015818;28;45498;-58
2022/12/28 00:57:24;;;;;;;;;5.00;5.00;;;;;10.13;78.38;101396.81;5014675;28;45496;-57
2022/12/28 00:59:49;;;;;;;;;5.00;5.00;;;;;10.07;77.81;101380.28;5017721;28;45221;-58
2022/12/28 01:02:15;;;;;;;;;3.00;3.00;;;;;10.12;78.42;101394.22;5001149;28;45286;-58
2022/12/28 01:04:40;;;;;;;;;5.00;2.67;;;;;10.12;78.40;101394.22;5001196;28;45349;-57
2022/12/28 01:07:06;;;;;;;;;5.00;5.00;;;;;10.13;77.63;101391.50;5018143;28;57318;-58
2022/12/28 01:09:31;;;;;;;;;3.00;3.00;;;;;10.16;78.16;101387.88;5018089;28;62565;-58
2022/12/28 01:11:56;;;;;;;;;2.50;2.50;;;;;10.15;77.61;101376.34;5030851;28;45326;-56
2022/12/28 01:14:22;;;;;;;;;7.00;3.00;;;;;10.15;77.64;101370.19;5038348;28;45233;-55
2022/12/28 01:16:47;;;;;;;;;5.75;2.25;;;;;10.18;78.31;101372.72;5038666;28;45948;-58
2022/12/28 01:19:17;;;;;;;;;5.75;3.00;;;;;10.21;77.59;101369.94;5038303;28;45405;-56
2022/12/28 01:21:42;;;;;;;;;3.00;3.00;;;;;10.21;77.56;101367.28;5038751;28;45254;-57
2022/12/28 01:24:08;;;;;;;;;2.00;2.00;;;;;10.18;78.29;101370.06;5038742;28;45473;-56
2022/12/28 01:26:34;;;;;;;;;2.75;2.75;;;;;10.18;77.57;101370.94;5038376;28;46134;-57
2022/12/28 01:29:00;;;;;;;;;6.00;3.00;;;;;10.18;77.88;101370.94;5038664;28;45285;-57
2022/12/28 01:31:29;;;;;;;;;1.50;1.50;;;;;10.13;77.69;101359.63;5038940;28;45309;-57
2022/12/28 01:33:55;;;;;;;;;3.00;2.00;;;;;10.20;78.13;101362.91;5004734;28;45804;-57
2022/12/28 01:36:23;;;;;;;;;2.25;2.25;;;;;10.22;77.90;101361.06;5038527;28;46255;-57
2022/12/28 01:38:52;;;;;;;;;3.00;2.00;;;;;10.20;77.57;101360.25;5038877;28;45337;-57
2022/12/28 01:41:20;;;;;;;;;4.75;4.00;;;;;10.27;77.59;101367.03;5038750;28;45437;-56
2022/12/28 01:43:51;;;;;;;;;3.00;3.00;;;;;10.26;77.95;101363.50;5038721;28;45783;-56
2022/12/28 01:46:39;;;;;;;;;5.25;4.75;;;;;10.27;77.45;101365.25;5038301;28;45307;-57
2022/12/28 01:49:17;;;;;;;;;3.00;3.00;;;;;10.28;77.16;101355.47;5020471;28;45412;-58
2022/12/28 01:51:52;;;;;;;;;2.75;2.00;;;;;10.32;77.97;101365.06;5038850;28;45270;-57
2022/12/28 01:54:21;;;;;;;;;5.00;3.00;;;;;10.32;77.19;101352.63;5021842;28;45436;-55
2022/12/28 01:56:47;;;;;;;;;2.00;2.00;;;;;10.34;77.32;101357.88;5038396;28;45305;-57
2022/12/28 01:59:16;;;;;;;;;7.00;2.33;;;;;10.37;77.60;101352.44;5037987;28;45706;-58
2022/12/28 02:01:41;;;;;;;;;3.00;3.00;;;;;10.21;77.49;101320.31;5038410;28;45756;-57
2022/12/28 02:04:07;;;;;;;;;2.67;2.67;;;;;10.29;76.76;101334.16;5038315;28;45530;-58
2022/12/28 02:06:32;;;;;;;;;2.33;2.33;;;;;10.39;77.24;101337.28;5036942;28;46375;-57
2022/12/28 02:09:23;;;;;;;;;7.00;2.00;;;;;10.40;76.65;101333.69;5038618;28;45402;-61
2022/12/28 02:11:50;;;;;;;;;2.67;2.67;;;;;10.36;76.58;101324.13;5025809;28;45482;-57
2022/12/28 02:14:18;;;;;;;;;3.33;3.33;;;;;10.38;76.98;101322.25;5018142;28;45443;-58
2022/12/28 02:16:44;;;;;;;;;2.00;2.00;;;;;10.36;77.08;101310.81;5017607;28;46068;-57
2022/12/28 02:19:14;;;;;;;;;2.25;1.25;;;;;10.44;76.63;101329.97;5017760;28;45226;-57
2022/12/28 02:22:15;;;;;;;;;4.25;4.25;;;;;10.44;76.72;101326.44;5000406;28;45321;-57
2022/12/28 02:24:59;;;;;;;;;5.00;2.50;;;;;10.42;77.12;101318.53;5017821;28;45496;-58
2022/12/28 02:27:55;;;;;;;;;3.67;2.00;;;;;10.45;76.92;101322.88;5017814;28;47585;-58
2022/12/28 02:30:21;;;;;;;;;6.33;3.00;;;;;10.40;77.17;101317.72;5017378;28;45364;-57
2022/12/28 02:32:52;;;;;;;;;5.33;2.33;;;;;10.42;76.68;101320.34;5017486;28;45361;-57
2022/12/28 02:35:42;;;;;;;;;1.67;1.67;;;;;10.45;77.18;101309.56;5017738;28;45418;-57
2022/12/28 02:38:30;;;;;;;;;5.00;2.67;;;;;10.47;77.03;101311.22;5017433;28;45385;-57
2022/12/28 02:41:02;;;;;;;;;2.00;2.00;;;;;10.52;76.83;101305.69;5017105;28;45277;-57
2022/12/28 02:43:27;;;;;;;;;2.00;1.00;;;;;10.50;76.42;101313.72;5017600;28;45321;-56
2022/12/28 02:51:51;;;;;;;;;2.33;1.67;;;;;10.52;76.56;101301.22;5017138;28;45355;-58
2022/12/28 02:58:09;;;;;;;;;3.00;3.00;;;;;10.51;77.15;101294.19;5017151;28;45411;-58
2022/12/28 03:00:57;;;;;;;;;2.33;2.33;;;;;10.50;77.09;101292.47;4986438;28;47859;-57
2022/12/28 03:03:38;;;;;;;;;2.00;2.00;;;;;10.50;77.60;101284.47;5016952;28;45348;-57
2022/12/28 03:09:16;;;;;;;;;6.33;5.00;;;;;10.48;77.28;101286.34;5017539;28;45309;-58
2022/12/28 03:11:58;;;;;;;;;4.25;4.25;;;;;10.52;77.34;101284.41;5026460;28;45451;-58
2022/12/28 03:14:42;;;;;;;;;3.67;3.67;;;;;10.53;77.39;101276.34;5036972;28;45454;-58
2022/12/28 03:31:20;;;;;;;;;3.25;3.25;;;;;10.59;77.05;101265.47;5036779;28;45471;-58
2022/12/28 03:33:48;;;;;;;;;3.50;3.50;;;;;10.57;77.03;101251.38;5018328;28;46326;-58
2022/12/28 03:36:29;;;;;;;;;3.25;3.25;;;;;10.57;77.05;101255.81;5036367;28;45462;-58
2022/12/28 03:39:08;;;;;;;;;3.00;3.00;;;;;10.58;77.30;101252.22;5036472;28;45320;-57
2022/12/28 03:41:38;;;;;;;;;4.25;4.25;;;;;10.61;77.32;101252.94;5036746;28;45436;-58
2022/12/28 03:44:09;;;;;;;;;6.67;6.00;;;;;10.59;77.43;101251.28;5018117;28;45283;-58
2022/12/28 03:46:43;;;;;;;;;6.75;4.25;;;;;10.58;77.58;101238.94;5036136;28;45368;-57
2022/12/28 03:49:09;;;;;;;;;4.33;4.33;;;;;10.48;77.47;101222.53;5036652;28;45398;-58
2022/12/28 03:51:35;;;;;;;;;3.67;3.67;;;;;10.58;77.22;101237.13;5036634;28;45427;-58
2022/12/28 03:54:00;;;;;;;;;4.00;4.00;;;;;10.58;77.41;101239.78;5036512;28;45337;-57
2022/12/28 03:56:27;;;;;;;;;5.75;4.25;;;;;10.57;77.33;101242.53;5036164;28;45391;-58
2022/12/28 03:58:53;;;;;;;;;3.00;3.00;;;;;10.57;77.17;101235.41;5036230;28;45253;-57
2022/12/28 04:01:19;;;;;;;;;2.00;1.00;;;;;10.47;77.47;101202.19;5036299;28;45567;-57
2022/12/28 04:03:45;;;;;;;;;3.00;3.00;;;;;10.64;77.27;101236.84;5035853;28;45607;-57
2022/12/28 04:06:12;;;;;;;;;7.75;4.25;;;;;10.63;77.34;101229.78;5035879;28;45245;-57
2022/12/28 04:08:38;;;;;;;;;7.00;3.75;;;;;10.60;77.06;101224.63;5018329;28;46097;-57
2022/12/28 04:11:03;;;;;;;;;1.00;1.00;;;;;10.60;77.24;101221.09;5031614;28;45288;-58
2022/12/28 04:13:32;;;;;;;;;3.00;3.00;;;;;10.63;77.19;101221.81;4998236;28;47259;-57
2022/12/28 04:16:00;;;;;;;;;7.33;6.00;;;;;10.62;77.15;101212.13;5016017;28;45336;-56
2022/12/28 04:18:26;;;;;;;;;6.00;3.00;;;;;10.57;77.49;101208.81;5016057;28;45311;-57
2022/12/28 04:20:52;;;;;;;;;4.00;4.00;;;;;10.57;77.84;101203.50;5015920;28;45629;-57
2022/12/28 04:23:18;;;;;;;;;3.00;3.00;;;;;10.60;77.70;101203.34;4998248;28;48305;-58
2022/12/28 04:25:43;;;;;;;;;6.00;3.00;;;;;10.59;78.24;101198.97;5015927;28;45972;-56
2022/12/28 04:28:09;;;;;;;;;6.00;6.00;;;;;10.56;78.38;101191.13;5015866;28;45806;-58
2022/12/28 04:30:34;;;;;;;;;2.75;2.75;;;;;10.59;77.76;101195.44;5016063;28;48419;-56
2022/12/28 04:32:59;;;;;;;;;7.67;3.00;;;;;10.57;78.20;101182.22;5016106;28;45295;-57
2022/12/28 04:35:25;;;;;;;;;3.00;3.00;;;;;10.57;77.97;101178.69;4999900;28;47541;-57
2022/12/28 04:37:50;;;;;;;;;8.50;3.75;;;;;10.54;78.22;101178.81;5019484;28;45610;-56
2022/12/28 04:40:15;;;;;;;;;4.00;4.00;;;;;10.53;78.11;101185.94;5019756;28;45281;-58
2022/12/28 04:42:41;;;;;;;;;3.00;3.00;;;;;10.50;78.23;101180.75;5019324;28;45528;-57
2022/12/28 04:45:07;;;;;;;;;4.67;4.67;;;;;10.54;78.36;101187.66;5019209;28;45393;-57
2022/12/28 04:47:32;;;;;;;;;6.00;3.75;;;;;10.50;78.38;101169.25;5002521;28;45441;-56
2022/12/28 04:49:57;;;;;;;;;5.50;3.00;;;;;10.53;78.95;101179.75;5019600;28;45371;-58
2022/12/28 04:52:23;;;;;;;;;4.00;4.00;;;;;10.44;78.56;101167.75;5018863;28;45307;-57
2022/12/28 04:54:48;;;;;;;;;2.00;2.00;;;;;10.45;78.69;101179.25;5018955;28;45519;-58
2022/12/28 04:57:14;;;;;;;;;2.00;2.00;;;;;10.49;78.85;101173.72;5019142;28;45294;-57
2022/12/28 04:59:39;;;;;;;;;3.00;3.00;;;;;10.47;79.39;101164.97;5019180;28;45446;-57
2022/12/28 05:02:06;;;;;;;;;3.00;3.00;;;;;10.43;79.35;101168.69;5019324;28;45325;-57
2022/12/28 05:04:31;;;;;;;;;1.00;1.00;;;;;10.49;79.49;101164.88;5019269;28;45594;-58
2022/12/28 05:06:56;;;;;;;;;4.33;4.33;;;;;10.51;79.56;101165.66;5018332;28;45545;-57
2022/12/28 05:09:22;;;;;;;;;6.75;4.75;;;;;10.50;79.21;101170.13;5019328;28;45170;-57
2022/12/28 05:11:48;;;;;;;;;3.00;3.00;;;;;10.47;78.71;101162.31;5018563;28;45289;-57
2022/12/28 05:14:13;;;;;;;;;3.00;3.00;;;;;10.44;79.17;101154.47;5018997;28;45392;-57
2022/12/28 05:16:39;;;;;;;;;4.67;2.00;;;;;10.43;79.38;101151.88;5018657;28;45491;-57
2022/12/28 05:19:04;;;;;;;;;3.00;3.00;;;;;10.43;79.95;101152.75;5019362;28;45330;-59
2022/12/28 05:21:30;;;;;;;;;3.75;3.00;;;;;10.38;80.66;101144.09;5000804;28;46661;-58
2022/12/28 05:23:56;;;;;;;;;5.75;3.00;;;;;10.49;80.23;101159.56;5018132;28;45414;-58
2022/12/28 05:26:26;;;;;;;;;3.50;2.75;;;;;10.45;80.70;101156.19;5018973;28;45842;-57
2022/12/28 05:28:51;;;;;;;;;2.00;2.00;;;;;10.43;80.46;101162.53;5018687;28;45478;-55
2022/12/28 05:31:19;;;;;;;;;4.25;4.25;;;;;10.41;80.63;101159.03;5018584;28;46267;-57
2022/12/28 05:33:46;;;;;;;;;2.75;2.00;;;;;10.39;80.85;101145.81;5018921;28;45276;-58
2022/12/28 05:36:24;;;;;;;;;3.50;3.50;;;;;10.40;81.04;101146.69;5017662;28;45410;-58
2022/12/28 05:38:50;;;;;;;;;4.50;3.50;;;;;10.44;80.36;101143.84;5019290;28;45256;-57
2022/12/28 05:41:24;;;;;;;;;4.25;2.50;;;;;10.44;80.31;101150.94;5018841;28;46214;-57
2022/12/28 05:43:50;;;;;;;;;4.33;3.00;;;;;10.40;81.05;101149.34;5018462;28;45421;-57
2022/12/28 05:46:22;;;;;;;;;6.00;3.00;;;;;10.39;81.11;101151.13;5018093;28;45225;-57
2022/12/28 05:48:48;;;;;;;;;4.50;3.25;;;;;10.37;81.54;101150.34;5018559;28;45446;-58
2022/12/28 05:51:16;;;;;;;;;6.00;3.00;;;;;10.39;80.74;101143.16;5018001;28;46193;-57
2022/12/28 05:53:41;;;;;;;;;3.00;3.00;;;;;10.40;81.38;101146.69;5000542;28;45419;-57
2022/12/28 05:56:19;;;;;;;;;4.25;3.00;;;;;10.42;81.07;101150.16;5018837;28;45325;-57
2022/12/28 05:58:46;;;;;;;;;2.25;2.25;;;;;10.40;80.97;101144.88;5018565;28;45491;-58
2022/12/28 06:01:15;;;;;;;;;7.00;4.50;;;;;10.39;81.26;101136.97;5018110;28;45386;-57
2022/12/28 06:03:40;;;;;;;;;3.00;3.00;;;;;10.39;81.36;101135.19;5000130;28;45314;-56
2022/12/28 06:06:17;;;;;;;;;4.33;4.33;;;;;10.41;80.91;101143.09;5018497;28;45306;-56
2022/12/28 06:08:43;;;;;;;;;6.25;4.00;;;;;10.42;80.56;101144.84;5018257;28;45339;-57
2022/12/28 06:11:12;;;;;;;;;4.50;3.00;;;;;10.41;80.77;101130.66;5017634;28;45465;-57
2022/12/28 06:13:38;;;;;;;;;6.75;4.25;;;;;10.45;80.96;101128.75;5018144;28;45420;-57
2022/12/28 06:16:08;;;;;;;;;2.25;2.25;;;;;10.42;80.31;101124.44;5017832;28;45447;-57
2022/12/28 06:18:34;;;;;;;;;4.67;4.67;;;;;10.38;80.11;101120.16;5017846;28;45248;-57
2022/12/28 06:21:02;;;;;;;;;3.00;3.00;;;;;10.36;80.77;101106.09;5017582;28;46704;-58
2022/12/28 06:23:27;;;;;;;;;4.33;2.00;;;;;10.37;80.86;101101.63;5017483;28;45392;-56
2022/12/28 06:25:52;;;;;;;;;6.00;4.50;;;;;10.44;80.77;101117.25;5017054;28;55894;-58
2022/12/28 06:28:17;;;;;;;;;1.00;1.00;;;;;10.42;80.61;101108.47;5017931;28;45291;-58
2022/12/28 06:30:43;;;;;;;;;7.67;4.33;;;;;10.41;80.57;101098.75;4999190;28;65167;-57
2022/12/28 06:33:08;;;;;;;;;3.00;3.00;;;;;10.42;80.36;101089.88;5018050;28;45376;-57
2022/12/28 06:35:33;;;;;;;;;3.00;3.00;;;;;10.49;80.04;101096.59;5017806;28;45364;-58
2022/12/28 06:37:59;;;;;;;;;4.33;3.00;;;;;10.53;80.38;101092.00;4999644;28;45316;-57
2022/12/28 06:40:24;;;;;;;;;3.00;3.00;;;;;10.53;80.03;101092.00;5017232;28;47367;-56
2022/12/28 06:42:50;;;;;;;;;6.00;3.25;;;;;10.51;80.10;101086.75;5017445;28;45257;-58
2022/12/28 06:45:15;;;;;;;;;3.67;3.67;;;;;10.50;80.64;101085.03;5017556;28;45516;-58
2022/12/28 06:47:40;;;;;;;;;3.33;3.33;;;;;10.53;79.72;101079.56;5018053;28;45306;-58
2022/12/28 06:50:06;;;;;;;;;4.50;3.00;;;;;10.53;79.98;101084.88;5017363;28;46109;-58
2022/12/28 06:52:32;;;;;;;;;5.25;3.50;;;;;10.51;80.05;101075.25;5017102;28;45273;-58
2022/12/28 06:54:57;;;;;;;;;4.67;4.33;;;;;10.58;80.05;101076.69;5017162;28;45986;-58
2022/12/28 06:57:22;;;;;;;;;7.00;4.00;;;;;10.55;79.75;101066.22;4998910;28;45251;-57
2022/12/28 06:59:48;;;;;;;;;5.25;3.00;;;;;10.52;80.02;101066.34;4999444;28;46381;-59
2022/12/28 07:02:13;;;;;;;;;6.75;5.00;;;;;10.62;79.85;101076.47;5017199;28;45414;-58
2022/12/28 07:04:39;;;;;;;;;8.00;4.25;;;;;10.57;79.88;101065.19;5017361;28;45317;-58
2022/12/28 07:07:04;;;;;;;;;8.25;4.25;;;;;10.62;79.85;101072.94;5017309;28;45807;-59
2022/12/28 07:09:29;;;;;;;;;4.50;4.50;;;;;10.64;79.23;101079.03;4998934;28;48006;-58
2022/12/28 07:11:55;;;;;;;;;4.25;4.25;;;;;10.64;78.80;101063.94;5028493;28;45423;-56
2022/12/28 07:14:20;;;;;;;;;5.33;3.00;;;;;10.64;79.59;101061.28;5036940;28;45331;-56
2022/12/28 07:16:46;;;;;;;;;6.50;5.00;;;;;10.64;79.59;101055.97;5037109;28;45345;-57
2022/12/28 07:19:12;;;;;;;;;7.33;3.00;;;;;10.62;79.43;101051.66;5036992;28;46522;-57
2022/12/28 07:21:38;;;;;;;;;3.00;3.00;;;;;10.54;79.28;101044.03;5036670;28;45452;-63
2022/12/28 07:24:05;;;;;;;;;6.00;3.00;;;;;10.56;79.20;101063.47;5037012;28;45320;-57
2022/12/28 07:26:32;;;;;;;;;4.67;3.00;;;;;10.57;79.40;101046.56;5037129;28;45538;-56
2022/12/28 07:29:00;;;;;;;;;9.33;3.67;;;;;10.57;79.08;101043.06;5036505;28;45295;-58
2022/12/28 07:31:29;;;;;;;;;7.00;4.33;;;;;10.56;79.40;101026.25;5036636;28;45411;-57
2022/12/28 07:33:56;;;;;;;;;3.67;3.67;;;;;10.67;79.14;101036.31;5018970;28;45320;-57
2022/12/28 07:36:23;;;;;;;;;6.25;5.75;;;;;10.72;78.77;101034.31;5036803;28;45485;-58
2022/12/28 07:38:49;;;;;;;;;7.75;3.75;;;;;10.75;78.94;101035.97;5036155;28;45440;-58
2022/12/28 07:41:33;;;;;;;;;3.00;3.00;;;;;10.72;78.83;101033.47;5037224;28;45426;-59
2022/12/28 07:43:59;;;;;;;;;4.00;4.00;;;;;10.71;78.50;101027.28;5036830;28;45366;-58
2022/12/28 07:46:28;;;;;;;;;4.25;4.00;;;;;10.73;78.63;101032.50;5037169;28;45371;-58
2022/12/28 07:48:54;;;;;;;;;5.50;2.50;;;;;10.71;78.49;101023.75;5036432;28;45517;-60
2022/12/28 07:51:22;;;;;;;;;3.00;3.00;;;;;10.67;79.26;101022.16;5036721;28;45386;-59
2022/12/28 07:53:49;;;;;;;;;2.00;2.00;;;;;10.69;79.42;101017.66;5037308;28;45319;-58
2022/12/28 07:56:15;;;;;;;;;2.50;2.50;;;;;10.61;79.27;101002.06;5037629;28;45430;-58
2022/12/28 07:58:41;;;;;;;;;3.00;3.00;;;;;10.69;78.92;101012.34;5019388;28;45604;-59
2022/12/28 08:01:12;;;;;;;;;3.67;3.67;;;;;10.73;78.26;101006.78;5035873;28;45340;-58
2022/12/28 08:03:38;;;;;;;;;5.00;4.33;;;;;10.77;78.40;101002.16;5035341;28;45313;-57
2022/12/28 08:06:07;;;;;;;;;4.00;2.00;;;;;10.71;79.15;101006.00;5037088;28;45237;-57
2022/12/28 08:08:41;;;;;;;;;5.25;3.50;;;;;10.66;78.64;100994.69;5036234;28;45503;-57
2022/12/28 08:11:10;;;;;;;;;7.00;3.00;;;;;10.70;79.44;100998.09;5031422;28;45434;-57
2022/12/28 08:13:38;;;;;;;;;6.00;3.25;;;;;10.69;78.42;100994.56;5016826;28;45342;-59
2022/12/28 08:16:04;;;;;;;;;3.25;2.25;;;;;10.70;78.77;100984.78;5017416;28;45407;-57
2022/12/28 08:18:29;;;;;;;;;5.50;4.75;;;;;10.72;78.82;100980.25;5015531;28;45451;-57
2022/12/28 08:21:12;;;;;;;;;5.75;2.00;;;;;10.76;78.22;100971.16;5016205;28;45381;-58
2022/12/28 08:23:37;;;;;;;;;6.00;3.75;;;;;10.68;78.74;100968.91;5000472;28;45368;-58
2022/12/28 08:26:09;;;;;;;;;2.00;2.00;;;;;10.77;78.61;100978.22;4998283;28;45223;-57
2022/12/28 08:28:35;;;;;;;;;3.33;3.33;;;;;10.76;78.38;100971.16;5015864;28;45373;-58
2022/12/28 08:31:23;;;;;;;;;6.00;3.00;;;;;10.72;78.59;100961.63;5016014;28;45403;-57
2022/12/28 08:33:51;;;;;;;;;6.00;3.00;;;;;10.76;78.62;100958.72;5015892;28;45166;-58
2022/12/28 08:36:16;;;;;;;;;3.00;3.00;;;;;10.68;78.25;100946.75;5016264;28;45353;-57
2022/12/28 08:38:43;;;;;;;;;4.33;3.00;;;;;10.78;78.71;100961.31;5015545;28;46084;-58
2022/12/28 08:41:17;;;;;;;;;2.67;2.67;;;;;10.75;77.39;100945.50;5015770;28;45388;-57
2022/12/28 08:43:42;;;;;;;;;3.00;3.00;;;;;10.76;78.01;100952.53;5015978;28;45265;-57
2022/12/28 08:46:19;;;;;;;;;3.33;3.00;;;;;10.83;77.65;100948.66;5016044;28;45645;-57
2022/12/28 08:48:46;;;;;;;;;3.00;3.00;;;;;10.75;77.72;100941.03;5015852;28;45345;-58
2022/12/28 08:51:17;;;;;;;;;4.67;3.00;;;;;10.83;77.49;100961.94;5015610;28;46175;-58
2022/12/28 08:53:42;;;;;;;;;8.00;3.67;;;;;10.81;77.22;100955.84;5014506;28;45398;-57
2022/12/28 08:56:11;;;;;;;;;8.00;4.25;;;;;10.80;77.58;100949.63;4998204;28;45377;-57
2022/12/28 08:58:38;;;;;;;;;5.33;1.67;;;;;10.83;77.37;100952.16;5015897;28;46430;-58
2022/12/28 09:01:11;;;;;;;;;2.67;2.00;;;;;10.83;77.70;100951.31;5015717;28;45411;-57
2022/12/28 09:03:38;;;;;;;;;2.00;2.00;;;;;10.82;76.89;100946.94;5015126;28;45338;-60
2022/12/28 09:06:06;;;;;;;;;3.75;3.75;;;;;10.86;77.12;100941.34;5016114;28;45328;-58
2022/12/28 09:08:31;;;;;;;;;4.50;3.50;;;;;10.89;76.58;100945.66;5016226;28;46237;-57
2022/12/28 09:11:01;;;;;;;;;2.00;2.00;;;;;10.85;77.20;100931.66;5018957;28;45344;-58
2022/12/28 09:13:27;;;;;;;;;3.00;3.00;;;;;10.90;77.22;100937.59;5035052;28;45351;-57
2022/12/28 09:16:00;;;;;;;;;2.67;2.67;;;;;10.96;76.79;100925.78;5035433;28;47418;-58
2022/12/28 09:18:26;;;;;;;;;3.00;3.00;;;;;11.00;76.62;100929.13;5035095;28;45460;-57
2022/12/28 09:20:52;;;;;;;;;3.00;3.00;;;;;11.00;76.28;100930.00;5036481;28;45467;-57
2022/12/28 09:23:17;;;;;;;;;6.00;3.00;;;;;11.02;76.36;100933.44;5039233;28;45312;-58
2022/12/28 09:25:43;;;;;;;;;3.33;3.00;;;;;11.03;76.80;100939.63;5038941;28;45547;-57
2022/12/28 09:28:08;;;;;;;;;2.67;2.67;;;;;11.04;76.35;100928.88;5020704;28;46717;-57
2022/12/28 09:30:34;;;;;;;;;4.33;3.00;;;;;11.07;76.17;100912.78;5038674;28;45254;-57
2022/12/28 09:35:43;;;;;;;;;3.00;3.00;;;;;11.10;76.21;100923.25;5038728;28;45533;-57
2022/12/28 09:38:08;;;;;;;;;9.00;3.00;;;;;11.13;76.48;100920.44;5038316;28;45891;-57
2022/12/28 09:40:35;;;;;;;;;3.00;3.00;;;;;11.21;76.11;100920.03;5020300;28;52915;-57
2022/12/28 09:43:00;;;;;;;;;4.00;4.00;;;;;11.27;75.75;100917.03;5038994;28;45383;-58
2022/12/28 09:45:27;;;;;;;;;4.67;3.33;;;;;11.27;75.91;100922.34;5038108;28;45559;-58
2022/12/28 09:48:01;;;;;;;;;0.33;0.33;;;;;11.16;75.43;100928.25;5038052;28;45982;-58
2022/12/28 09:50:30;;;;;;;;;4.00;4.00;;;;;11.21;76.06;100920.88;5037866;28;45343;-57
2022/12/28 09:53:18;;;;;;;;;6.33;3.00;;;;;11.23;75.65;100926.97;5019950;28;45329;-57
2022/12/28 09:55:53;;;;;;;;;4.00;4.00;;;;;11.21;75.50;100914.69;5038604;28;45341;-57
2022/12/28 09:58:20;;;;;;;;;4.00;4.00;;;;;11.26;75.68;100909.97;5020438;28;45375;-57
2022/12/28 10:00:47;;;;;;;;;3.33;3.33;;;;;11.30;75.53;100918.66;5038207;28;45453;-58
2022/12/28 10:03:18;;;;;;;;;4.00;2.00;;;;;11.31;75.21;100918.56;5020971;28;45346;-58
2022/12/28 10:05:44;;;;;;;;;3.67;3.67;;;;;11.35;75.27;100919.28;5038714;28;45384;-57
2022/12/28 10:08:14;;;;;;;;;2.33;2.33;;;;;11.40;75.20;100906.56;5039144;28;45761;-57
2022/12/28 10:10:41;;;;;;;;;3.00;3.00;;;;;11.47;74.82;100910.63;5036745;28;45351;-57
2022/12/28 10:13:19;;;;;;;;;3.33;2.00;;;;;11.47;74.65;100900.84;5018232;28;45325;-58
2022/12/28 10:15:45;;;;;;;;;3.67;2.00;;;;;11.46;74.17;100903.59;5017613;28;45617;-57
2022/12/28 10:18:13;;;;;;;;;3.75;3.75;;;;;11.49;74.13;100896.28;5017809;28;46142;-58
2022/12/28 10:20:41;;;;;;;;;7.00;3.00;;;;;11.48;73.83;100894.56;5017322;28;45418;-58
2022/12/28 10:23:15;;;;;;;;;3.00;3.00;;;;;11.51;74.29;100890.88;4999564;28;45388;-57
2022/12/28 10:25:40;;;;;;;;;6.67;4.00;;;;;11.54;73.66;100893.34;5017906;28;45283;-57
2022/12/28 10:28:07;;;;;;;;;3.00;3.00;;;;;11.49;73.41;100879.44;5017110;28;54705;-57
2022/12/28 10:30:44;;;;;;;;;2.67;2.67;;;;;11.44;72.86;100874.34;5017690;28;45188;-56
2022/12/28 10:33:15;;;;;;;;;2.00;2.00;;;;;11.51;73.63;100893.53;5016274;28;45399;-56
2022/12/28 10:35:49;;;;;;;;;1.67;1.67;;;;;11.45;73.46;100900.03;5017466;28;45454;-58
2022/12/28 10:38:29;;;;;;;;;3.33;2.00;;;;;11.45;73.67;100880.53;5017419;28;45463;-57
2022/12/28 10:41:04;;;;;;;;;3.00;3.00;;;;;11.47;72.70;100889.31;5017855;28;45814;-57
2022/12/28 10:43:34;;;;;;;;;4.00;3.00;;;;;11.45;72.95;100883.19;5017910;28;45720;-57
2022/12/28 10:46:01;;;;;;;;;4.00;3.00;;;;;11.51;73.18;100869.56;5017418;28;45453;-57
2022/12/28 10:48:31;;;;;;;;;5.33;3.33;;;;;11.48;72.60;100885.72;5017328;28;45218;-56
2022/12/28 10:51:08;;;;;;;;;2.00;2.00;;;;;11.49;72.86;100868.78;5017610;28;45332;-57
2022/12/28 10:53:49;;;;;;;;;1.00;1.00;;;;;11.51;72.91;100858.91;5017594;28;45498;-57
2022/12/28 10:56:31;;;;;;;;;2.00;2.00;;;;;11.39;72.59;100848.94;5017908;28;45169;-56
2022/12/28 10:59:24;;;;;;;;;2.00;2.00;;;;;11.48;72.58;100851.94;4999233;28;48605;-57
2022/12/28 11:01:49;;;;;;;;;3.67;2.00;;;;;11.42;72.72;100848.75;5017048;28;45397;-57
2022/12/28 11:04:18;;;;;;;;;1.00;1.00;;;;;11.48;72.63;100851.09;5016938;28;45252;-58
2022/12/28 11:06:52;;;;;;;;;3.00;2.67;;;;;11.51;72.30;100845.59;4999295;28;45553;-57
2022/12/28 11:09:24;;;;;;;;;2.33;2.33;;;;;11.49;72.16;100836.84;5016751;28;46146;-57
2022/12/28 11:11:52;;;;;;;;;1.67;1.67;;;;;11.50;72.44;100827.88;5027443;28;45517;-56
2022/12/28 11:14:23;;;;;;;;;2.67;2.67;;;;;11.55;71.67;100825.81;5018832;28;45298;-59
2022/12/28 11:16:49;;;;;;;;;3.67;3.67;;;;;11.58;72.10;100793.66;5036854;28;45556;-58
2022/12/28 11:19:15;;;;;;;;;2.00;2.00;;;;;11.70;71.79;100792.97;5036632;28;45345;-57
2022/12/28 11:21:43;;;;;;;;;7.67;3.00;;;;;11.77;71.57;100791.69;5036536;28;45368;-58
2022/12/28 11:24:16;;;;;;;;;3.33;2.00;;;;;11.82;70.77;100783.44;5036752;28;45321;-58
2022/12/28 11:26:48;;;;;;;;;4.00;2.00;;;;;11.89;71.40;100786.63;5036901;28;45445;-58
2022/12/28 11:29:15;;;;;;;;;3.33;2.00;;;;;11.91;70.50;100782.06;5018903;28;45614;-57
2022/12/28 11:31:55;;;;;;;;;3.33;3.00;;;;;11.90;70.34;100778.53;5036574;28;45383;-57
2022/12/28 11:34:26;;;;;;;;;3.33;3.33;;;;;11.95;70.45;100775.59;5036667;28;45411;-58
2022/12/28 11:36:52;;;;;;;;;6.33;2.00;;;;;11.89;70.53;100766.16;5036703;28;45300;-57
2022/12/28 11:39:26;;;;;;;;;2.00;2.00;;;;;11.88;70.73;100774.25;5036262;28;46123;-58
2022/12/28 11:41:56;;;;;;;;;6.00;3.00;;;;;11.90;70.90;100764.34;5036574;28;45318;-57
2022/12/28 11:44:43;;;;;;;;;4.00;2.00;;;;;11.93;70.11;100756.19;5036028;28;45331;-57
2022/12/28 11:47:14;;;;;;;;;3.33;2.33;;;;;11.87;70.54;100761.88;5036302;28;45776;-58
2022/12/28 11:49:41;;;;;;;;;2.00;0.00;;;;;11.83;70.77;100737.19;5036931;28;46099;-57
2022/12/28 11:52:33;;;;;;;;;2.00;2.00;;;;;11.84;71.05;100748.72;5018545;28;45525;-57
2022/12/28 11:55:20;;;;;;;;;4.00;3.67;;;;;11.84;71.13;100746.03;5028135;28;45332;-58
2022/12/28 11:57:45;;;;;;;;;4.67;2.67;;;;;11.80;71.00;100751.56;5020445;28;45418;-60
2022/12/28 12:00:17;;;;;;;;;4.00;3.00;;;;;11.84;71.42;100741.56;5035896;28;45414;-57
2022/12/28 12:03:01;;;;;;;;;3.67;2.00;;;;;11.82;70.88;100731.00;5036374;28;45374;-58
2022/12/28 12:05:36;;;;;;;;;4.00;1.00;;;;;11.85;70.97;100722.00;5018526;28;45444;-58